East Farms, Washington
Current Conditions -  °F | °C
As of 8:53 AM on Thursday 27 Nov 2014 (Local Time) from KSFF Reporting Station
Broken Clouds Broken Clouds  
Wind Chill: 11°   Ceiling: 7000
Heat Index: 11°   Visibility: 10mi
Dew Point:   Wind: 3mph
Humidity: 66%   Direction: NA
Pressure: 29.88"   Gusts: NA
Location:  47.7153°N, 117.066°W
Report Text: KSFF 271653Z VRB03KT 10SM BKN070 11/04 A2988 RMK AO2 SLP125 T01060044
Loading
Personal Weather Stations






























Interactive Weather Map New forecast layout! Learn more

10-Day Weather Forecast

Advertisements
Track Severe Weather on mobile